sensor_id;sensor_type;location;lat;lon;timestamp;P1;durP1;ratioP1;P2;durP2;ratioP2
70213;SDS011;60138;55.808;37.078;2023-04-19T00:00:18;19.83;;;6.97;;
70213;SDS011;60138;55.808;37.078;2023-04-19T00:02:43;16.03;;;7.90;;
70213;SDS011;60138;55.808;37.078;2023-04-19T00:05:09;13.98;;;7.18;;
70213;SDS011;60138;55.808;37.078;2023-04-19T00:07:35;16.23;;;7.80;;
70213;SDS011;60138;55.808;37.078;2023-04-19T00:10:00;17.58;;;8.60;;
70213;SDS011;60138;55.808;37.078;2023-04-19T00:12:26;11.73;;;8.20;;
70213;SDS011;60138;55.808;37.078;2023-04-19T00:14:52;13.48;;;6.93;;
70213;SDS011;60138;55.808;37.078;2023-04-19T00:17:17;14.77;;;7.47;;
70213;SDS011;60138;55.808;37.078;2023-04-19T00:19:43;17.65;;;7.90;;
70213;SDS011;60138;55.808;37.078;2023-04-19T00:22:09;20.20;;;9.50;;
70213;SDS011;60138;55.808;37.078;2023-04-19T00:24:35;15.95;;;7.85;;
70213;SDS011;60138;55.808;37.078;2023-04-19T00:27:00;14.33;;;7.53;;
70213;SDS011;60138;55.808;37.078;2023-04-19T00:29:26;15.32;;;7.93;;
70213;SDS011;60138;55.808;37.078;2023-04-19T00:31:52;15.43;;;8.00;;
70213;SDS011;60138;55.808;37.078;2023-04-19T00:34:17;16.80;;;7.57;;
70213;SDS011;60138;55.808;37.078;2023-04-19T00:36:43;16.07;;;8.07;;
70213;SDS011;60138;55.808;37.078;2023-04-19T00:39:09;12.68;;;7.88;;
70213;SDS011;60138;55.808;37.078;2023-04-19T00:41:37;17.87;;;7.50;;
70213;SDS011;60138;55.808;37.078;2023-04-19T00:44:03;14.27;;;7.60;;
70213;SDS011;60138;55.808;37.078;2023-04-19T00:46:29;13.05;;;7.00;;
70213;SDS011;60138;55.808;37.078;2023-04-19T00:48:54;11.35;;;6.75;;
70213;SDS011;60138;55.808;37.078;2023-04-19T00:51:20;12.27;;;7.63;;
70213;SDS011;60138;55.808;37.078;2023-04-19T00:53:46;16.30;;;8.43;;
70213;SDS011;60138;55.808;37.078;2023-04-19T00:56:12;19.57;;;8.80;;
70213;SDS011;60138;55.808;37.078;2023-04-19T00:58:38;12.98;;;7.50;;
70213;SDS011;60138;55.808;37.078;2023-04-19T01:01:04;13.87;;;7.73;;
70213;SDS011;60138;55.808;37.078;2023-04-19T01:03:29;13.65;;;7.82;;
70213;SDS011;60138;55.808;37.078;2023-04-19T01:05:55;15.07;;;8.37;;
70213;SDS011;60138;55.808;37.078;2023-04-19T01:08:21;12.88;;;7.70;;
70213;SDS011;60138;55.808;37.078;2023-04-19T01:10:47;14.00;;;8.48;;
70213;SDS011;60138;55.808;37.078;2023-04-19T01:13:14;13.68;;;7.40;;
70213;SDS011;60138;55.808;37.078;2023-04-19T01:15:40;14.57;;;7.63;;
70213;SDS011;60138;55.808;37.078;2023-04-19T01:18:05;14.88;;;7.65;;
70213;SDS011;60138;55.808;37.078;2023-04-19T01:20:31;13.03;;;7.97;;
70213;SDS011;60138;55.808;37.078;2023-04-19T01:22:57;16.05;;;8.35;;
70213;SDS011;60138;55.808;37.078;2023-04-19T01:25:23;16.60;;;7.60;;
70213;SDS011;60138;55.808;37.078;2023-04-19T01:27:48;13.38;;;7.55;;
70213;SDS011;60138;55.808;37.078;2023-04-19T01:30:14;16.80;;;7.17;;
70213;SDS011;60138;55.808;37.078;2023-04-19T01:32:40;14.82;;;7.60;;
70213;SDS011;60138;55.808;37.078;2023-04-19T01:35:06;11.63;;;6.90;;
70213;SDS011;60138;55.808;37.078;2023-04-19T01:37:35;12.23;;;7.57;;
70213;SDS011;60138;55.808;37.078;2023-04-19T01:40:04;15.13;;;8.13;;
70213;SDS011;60138;55.808;37.078;2023-04-19T01:42:30;13.70;;;7.07;;
70213;SDS011;60138;55.808;37.078;2023-04-19T01:44:59;19.70;;;8.82;;
70213;SDS011;60138;55.808;37.078;2023-04-19T01:47:26;12.83;;;7.27;;
70213;SDS011;60138;55.808;37.078;2023-04-19T01:49:52;13.80;;;7.70;;
70213;SDS011;60138;55.808;37.078;2023-04-19T01:52:17;15.00;;;7.57;;
70213;SDS011;60138;55.808;37.078;2023-04-19T01:54:43;15.40;;;7.97;;
70213;SDS011;60138;55.808;37.078;2023-04-19T01:57:09;12.20;;;7.50;;
70213;SDS011;60138;55.808;37.078;2023-04-19T01:59:35;14.80;;;7.30;;
70213;SDS011;60138;55.808;37.078;2023-04-19T02:02:00;12.52;;;7.40;;
70213;SDS011;60138;55.808;37.078;2023-04-19T02:04:26;15.10;;;8.10;;
70213;SDS011;60138;55.808;37.078;2023-04-19T02:06:52;11.90;;;7.18;;
70213;SDS011;60138;55.808;37.078;2023-04-19T02:09:17;12.93;;;7.27;;
70213;SDS011;60138;55.808;37.078;2023-04-19T02:11:45;13.15;;;7.43;;
70213;SDS011;60138;55.808;37.078;2023-04-19T02:14:11;11.68;;;7.72;;
70213;SDS011;60138;55.808;37.078;2023-04-19T02:16:37;14.97;;;7.93;;
70213;SDS011;60138;55.808;37.078;2023-04-19T02:19:03;13.43;;;7.40;;
70213;SDS011;60138;55.808;37.078;2023-04-19T02:21:28;13.43;;;7.88;;
70213;SDS011;60138;55.808;37.078;2023-04-19T02:23:54;13.48;;;7.72;;
70213;SDS011;60138;55.808;37.078;2023-04-19T02:26:20;12.85;;;6.82;;
70213;SDS011;60138;55.808;37.078;2023-04-19T02:28:46;23.63;;;6.73;;
70213;SDS011;60138;55.808;37.078;2023-04-19T02:31:11;13.27;;;6.88;;
70213;SDS011;60138;55.808;37.078;2023-04-19T02:33:37;14.07;;;8.05;;
70213;SDS011;60138;55.808;37.078;2023-04-19T02:36:03;13.35;;;7.60;;
70213;SDS011;60138;55.808;37.078;2023-04-19T02:38:29;16.52;;;8.27;;
70213;SDS011;60138;55.808;37.078;2023-04-19T02:40:54;16.73;;;7.53;;
70213;SDS011;60138;55.808;37.078;2023-04-19T02:43:20;18.70;;;7.37;;
70213;SDS011;60138;55.808;37.078;2023-04-19T02:45:46;14.65;;;7.90;;
70213;SDS011;60138;55.808;37.078;2023-04-19T02:48:12;13.73;;;6.50;;
70213;SDS011;60138;55.808;37.078;2023-04-19T02:50:38;16.58;;;6.97;;
70213;SDS011;60138;55.808;37.078;2023-04-19T02:53:04;15.02;;;7.20;;
70213;SDS011;60138;55.808;37.078;2023-04-19T02:55:31;14.30;;;7.70;;
70213;SDS011;60138;55.808;37.078;2023-04-19T02:58:04;13.18;;;7.03;;
70213;SDS011;60138;55.808;37.078;2023-04-19T03:00:32;16.85;;;8.25;;
70213;SDS011;60138;55.808;37.078;2023-04-19T03:03:05;13.73;;;6.75;;
70213;SDS011;60138;55.808;37.078;2023-04-19T03:05:32;19.33;;;7.10;;
70213;SDS011;60138;55.808;37.078;2023-04-19T03:07:58;13.47;;;7.30;;
70213;SDS011;60138;55.808;37.078;2023-04-19T03:10:24;16.88;;;7.93;;
70213;SDS011;60138;55.808;37.078;2023-04-19T03:12:50;12.52;;;6.75;;
70213;SDS011;60138;55.808;37.078;2023-04-19T03:15:16;11.63;;;7.60;;
70213;SDS011;60138;55.808;37.078;2023-04-19T03:17:43;14.75;;;7.43;;
70213;SDS011;60138;55.808;37.078;2023-04-19T03:20:09;16.45;;;7.95;;
70213;SDS011;60138;55.808;37.078;2023-04-19T03:22:36;14.90;;;7.78;;
70213;SDS011;60138;55.808;37.078;2023-04-19T03:25:03;16.83;;;7.77;;
70213;SDS011;60138;55.808;37.078;2023-04-19T03:27:30;17.27;;;7.45;;
70213;SDS011;60138;55.808;37.078;2023-04-19T03:30:01;18.80;;;6.82;;
70213;SDS011;60138;55.808;37.078;2023-04-19T03:32:31;15.65;;;7.70;;
70213;SDS011;60138;55.808;37.078;2023-04-19T03:34:58;15.77;;;8.18;;
70213;SDS011;60138;55.808;37.078;2023-04-19T03:37:24;15.20;;;7.93;;
70213;SDS011;60138;55.808;37.078;2023-04-19T03:39:50;18.05;;;7.30;;
70213;SDS011;60138;55.808;37.078;2023-04-19T03:42:22;18.45;;;7.85;;
70213;SDS011;60138;55.808;37.078;2023-04-19T03:45:11;17.80;;;6.80;;
70213;SDS011;60138;55.808;37.078;2023-04-19T03:47:43;17.30;;;7.37;;
70213;SDS011;60138;55.808;37.078;2023-04-19T03:50:09;11.30;;;6.57;;
70213;SDS011;60138;55.808;37.078;2023-04-19T03:52:37;13.20;;;7.68;;
70213;SDS011;60138;55.808;37.078;2023-04-19T03:55:03;15.48;;;8.60;;
70213;SDS011;60138;55.808;37.078;2023-04-19T03:57:36;12.40;;;7.60;;
70213;SDS011;60138;55.808;37.078;2023-04-19T04:00:09;19.77;;;6.90;;
70213;SDS011;60138;55.808;37.078;2023-04-19T04:02:40;18.27;;;8.40;;
70213;SDS011;60138;55.808;37.078;2023-04-19T04:05:06;13.88;;;7.72;;
70213;SDS011;60138;55.808;37.078;2023-04-19T04:07:33;18.13;;;7.70;;
70213;SDS011;60138;55.808;37.078;2023-04-19T04:10:00;14.90;;;6.87;;
70213;SDS011;60138;55.808;37.078;2023-04-19T04:12:26;15.07;;;7.15;;
70213;SDS011;60138;55.808;37.078;2023-04-19T04:14:54;13.07;;;6.65;;
70213;SDS011;60138;55.808;37.078;2023-04-19T04:17:20;16.95;;;6.82;;
70213;SDS011;60138;55.808;37.078;2023-04-19T04:19:47;15.13;;;6.95;;
70213;SDS011;60138;55.808;37.078;2023-04-19T04:22:13;19.20;;;7.10;;
70213;SDS011;60138;55.808;37.078;2023-04-19T04:24:40;15.20;;;6.50;;
70213;SDS011;60138;55.808;37.078;2023-04-19T04:27:17;15.52;;;7.40;;
70213;SDS011;60138;55.808;37.078;2023-04-19T04:29:43;18.70;;;8.30;;
70213;SDS011;60138;55.808;37.078;2023-04-19T04:32:09;13.10;;;7.05;;
70213;SDS011;60138;55.808;37.078;2023-04-19T04:34:38;14.52;;;7.30;;
70213;SDS011;60138;55.808;37.078;2023-04-19T04:37:09;12.25;;;6.25;;
70213;SDS011;60138;55.808;37.078;2023-04-19T04:39:36;13.95;;;7.28;;
70213;SDS011;60138;55.808;37.078;2023-04-19T04:42:02;14.63;;;6.50;;
70213;SDS011;60138;55.808;37.078;2023-04-19T04:44:28;17.45;;;7.57;;
70213;SDS011;60138;55.808;37.078;2023-04-19T04:46:54;15.77;;;6.93;;
70213;SDS011;60138;55.808;37.078;2023-04-19T04:49:24;14.93;;;6.50;;
70213;SDS011;60138;55.808;37.078;2023-04-19T04:51:50;20.70;;;6.37;;
70213;SDS011;60138;55.808;37.078;2023-04-19T04:54:15;12.02;;;6.53;;
70213;SDS011;60138;55.808;37.078;2023-04-19T04:56:42;11.13;;;6.63;;
70213;SDS011;60138;55.808;37.078;2023-04-19T04:59:08;17.00;;;6.83;;
70213;SDS011;60138;55.808;37.078;2023-04-19T05:01:37;13.05;;;6.28;;
70213;SDS011;60138;55.808;37.078;2023-04-19T05:04:03;11.93;;;6.60;;
70213;SDS011;60138;55.808;37.078;2023-04-19T05:06:31;17.83;;;6.22;;
70213;SDS011;60138;55.808;37.078;2023-04-19T05:08:57;13.07;;;7.38;;
70213;SDS011;60138;55.808;37.078;2023-04-19T05:11:31;17.00;;;6.37;;
70213;SDS011;60138;55.808;37.078;2023-04-19T05:13:57;15.70;;;7.10;;
70213;SDS011;60138;55.808;37.078;2023-04-19T05:16:25;12.27;;;6.07;;
70213;SDS011;60138;55.808;37.078;2023-04-19T05:18:51;12.68;;;6.72;;
70213;SDS011;60138;55.808;37.078;2023-04-19T05:21:17;12.53;;;6.87;;
70213;SDS011;60138;55.808;37.078;2023-04-19T05:23:44;15.45;;;6.95;;
70213;SDS011;60138;55.808;37.078;2023-04-19T05:26:11;12.90;;;6.35;;
70213;SDS011;60138;55.808;37.078;2023-04-19T05:28:38;13.82;;;5.72;;
70213;SDS011;60138;55.808;37.078;2023-04-19T05:31:10;15.02;;;6.90;;
70213;SDS011;60138;55.808;37.078;2023-04-19T05:33:49;16.23;;;6.57;;
70213;SDS011;60138;55.808;37.078;2023-04-19T05:36:15;15.45;;;6.00;;
70213;SDS011;60138;55.808;37.078;2023-04-19T05:38:41;11.70;;;6.53;;
70213;SDS011;60138;55.808;37.078;2023-04-19T05:41:07;13.73;;;5.10;;
70213;SDS011;60138;55.808;37.078;2023-04-19T05:43:32;15.68;;;5.72;;
70213;SDS011;60138;55.808;37.078;2023-04-19T05:45:59;13.30;;;4.97;;
70213;SDS011;60138;55.808;37.078;2023-04-19T05:48:24;10.68;;;5.57;;
70213;SDS011;60138;55.808;37.078;2023-04-19T05:50:59;12.75;;;5.53;;
70213;SDS011;60138;55.808;37.078;2023-04-19T05:53:54;11.50;;;5.70;;
70213;SDS011;60138;55.808;37.078;2023-04-19T05:56:20;32.17;;;6.10;;
70213;SDS011;60138;55.808;37.078;2023-04-19T05:58:46;12.10;;;5.35;;
70213;SDS011;60138;55.808;37.078;2023-04-19T06:01:11;8.37;;;4.60;;
70213;SDS011;60138;55.808;37.078;2023-04-19T06:03:37;11.68;;;4.68;;
70213;SDS011;60138;55.808;37.078;2023-04-19T06:06:04;11.23;;;5.53;;
70213;SDS011;60138;55.808;37.078;2023-04-19T06:08:30;15.88;;;4.97;;
70213;SDS011;60138;55.808;37.078;2023-04-19T06:10:55;11.50;;;4.80;;
70213;SDS011;60138;55.808;37.078;2023-04-19T06:13:22;8.50;;;4.57;;
70213;SDS011;60138;55.808;37.078;2023-04-19T06:15:48;15.48;;;5.78;;
70213;SDS011;60138;55.808;37.078;2023-04-19T06:18:13;9.23;;;4.87;;
70213;SDS011;60138;55.808;37.078;2023-04-19T06:20:39;16.40;;;5.18;;
70213;SDS011;60138;55.808;37.078;2023-04-19T06:23:05;9.73;;;4.87;;
70213;SDS011;60138;55.808;37.078;2023-04-19T06:25:31;13.50;;;5.45;;
70213;SDS011;60138;55.808;37.078;2023-04-19T06:27:57;9.88;;;5.07;;
70213;SDS011;60138;55.808;37.078;2023-04-19T06:30:24;13.07;;;4.53;;
70213;SDS011;60138;55.808;37.078;2023-04-19T06:32:49;12.48;;;4.10;;
70213;SDS011;60138;55.808;37.078;2023-04-19T06:35:15;8.07;;;4.80;;
70213;SDS011;60138;55.808;37.078;2023-04-19T06:37:41;12.85;;;4.13;;
70213;SDS011;60138;55.808;37.078;2023-04-19T06:40:07;8.52;;;4.32;;
70213;SDS011;60138;55.808;37.078;2023-04-19T06:42:36;12.80;;;4.75;;
70213;SDS011;60138;55.808;37.078;2023-04-19T06:45:04;7.97;;;4.50;;
70213;SDS011;60138;55.808;37.078;2023-04-19T06:47:32;8.47;;;4.00;;
70213;SDS011;60138;55.808;37.078;2023-04-19T06:49:58;13.13;;;4.63;;
70213;SDS011;60138;55.808;37.078;2023-04-19T06:52:23;9.33;;;4.80;;
70213;SDS011;60138;55.808;37.078;2023-04-19T06:54:49;12.65;;;4.80;;
70213;SDS011;60138;55.808;37.078;2023-04-19T06:57:16;8.07;;;4.43;;
70213;SDS011;60138;55.808;37.078;2023-04-19T06:59:42;8.70;;;4.60;;
70213;SDS011;60138;55.808;37.078;2023-04-19T07:02:08;11.75;;;5.20;;
70213;SDS011;60138;55.808;37.078;2023-04-19T07:04:34;10.55;;;5.07;;
70213;SDS011;60138;55.808;37.078;2023-04-19T07:07:00;10.95;;;4.65;;
70213;SDS011;60138;55.808;37.078;2023-04-19T07:09:26;11.87;;;4.87;;
70213;SDS011;60138;55.808;37.078;2023-04-19T07:11:52;11.25;;;4.43;;
70213;SDS011;60138;55.808;37.078;2023-04-19T07:14:18;16.00;;;5.72;;
70213;SDS011;60138;55.808;37.078;2023-04-19T07:16:44;18.97;;;5.40;;
70213;SDS011;60138;55.808;37.078;2023-04-19T07:19:10;11.50;;;4.93;;
70213;SDS011;60138;55.808;37.078;2023-04-19T07:21:36;11.32;;;5.18;;
70213;SDS011;60138;55.808;37.078;2023-04-19T07:24:02;10.95;;;4.15;;
70213;SDS011;60138;55.808;37.078;2023-04-19T07:26:28;9.00;;;4.60;;
70213;SDS011;60138;55.808;37.078;2023-04-19T07:28:54;10.00;;;4.43;;
70213;SDS011;60138;55.808;37.078;2023-04-19T07:31:19;13.60;;;4.23;;
70213;SDS011;60138;55.808;37.078;2023-04-19T07:33:45;12.02;;;6.05;;
70213;SDS011;60138;55.808;37.078;2023-04-19T07:36:11;9.03;;;4.90;;
70213;SDS011;60138;55.808;37.078;2023-04-19T07:38:37;14.57;;;4.32;;
70213;SDS011;60138;55.808;37.078;2023-04-19T07:41:02;7.70;;;4.63;;
70213;SDS011;60138;55.808;37.078;2023-04-19T07:43:28;12.27;;;4.65;;
70213;SDS011;60138;55.808;37.078;2023-04-19T07:45:54;9.63;;;3.78;;
70213;SDS011;60138;55.808;37.078;2023-04-19T07:48:20;6.97;;;4.77;;
70213;SDS011;60138;55.808;37.078;2023-04-19T07:50:46;9.82;;;4.80;;
70213;SDS011;60138;55.808;37.078;2023-04-19T07:53:11;10.80;;;4.30;;
70213;SDS011;60138;55.808;37.078;2023-04-19T07:55:37;9.00;;;3.95;;
70213;SDS011;60138;55.808;37.078;2023-04-19T07:58:03;6.77;;;4.10;;
70213;SDS011;60138;55.808;37.078;2023-04-19T08:00:28;7.30;;;3.92;;
70213;SDS011;60138;55.808;37.078;2023-04-19T08:02:55;10.13;;;4.47;;
70213;SDS011;60138;55.808;37.078;2023-04-19T08:05:20;7.97;;;4.32;;
70213;SDS011;60138;55.808;37.078;2023-04-19T08:07:46;11.35;;;5.10;;
70213;SDS011;60138;55.808;37.078;2023-04-19T08:10:12;15.43;;;4.30;;
70213;SDS011;60138;55.808;37.078;2023-04-19T08:12:38;10.98;;;4.68;;
70213;SDS011;60138;55.808;37.078;2023-04-19T08:15:05;10.32;;;4.18;;
70213;SDS011;60138;55.808;37.078;2023-04-19T08:17:32;8.63;;;4.40;;
70213;SDS011;60138;55.808;37.078;2023-04-19T08:19:58;9.50;;;4.80;;
70213;SDS011;60138;55.808;37.078;2023-04-19T08:22:24;8.10;;;4.10;;
70213;SDS011;60138;55.808;37.078;2023-04-19T08:24:50;9.38;;;4.25;;
70213;SDS011;60138;55.808;37.078;2023-04-19T08:27:16;10.60;;;4.88;;
70213;SDS011;60138;55.808;37.078;2023-04-19T08:29:42;9.07;;;4.03;;
70213;SDS011;60138;55.808;37.078;2023-04-19T08:32:07;9.53;;;4.20;;
70213;SDS011;60138;55.808;37.078;2023-04-19T08:34:34;13.23;;;4.35;;
70213;SDS011;60138;55.808;37.078;2023-04-19T08:37:01;11.40;;;4.15;;
70213;SDS011;60138;55.808;37.078;2023-04-19T08:39:26;13.40;;;4.20;;
70213;SDS011;60138;55.808;37.078;2023-04-19T08:41:52;16.13;;;4.30;;
70213;SDS011;60138;55.808;37.078;2023-04-19T08:44:20;10.57;;;4.03;;
70213;SDS011;60138;55.808;37.078;2023-04-19T08:46:47;9.40;;;4.07;;
70213;SDS011;60138;55.808;37.078;2023-04-19T08:49:13;14.02;;;3.90;;
70213;SDS011;60138;55.808;37.078;2023-04-19T08:51:39;14.18;;;5.30;;
70213;SDS011;60138;55.808;37.078;2023-04-19T08:54:06;13.50;;;4.13;;
70213;SDS011;60138;55.808;37.078;2023-04-19T08:56:32;7.70;;;4.22;;
70213;SDS011;60138;55.808;37.078;2023-04-19T08:58:58;6.93;;;5.07;;
70213;SDS011;60138;55.808;37.078;2023-04-19T09:01:24;12.80;;;5.13;;
70213;SDS011;60138;55.808;37.078;2023-04-19T09:03:49;12.05;;;4.50;;
70213;SDS011;60138;55.808;37.078;2023-04-19T09:06:15;17.33;;;5.57;;
70213;SDS011;60138;55.808;37.078;2023-04-19T09:08:41;9.27;;;4.35;;
70213;SDS011;60138;55.808;37.078;2023-04-19T09:11:07;9.30;;;4.75;;
70213;SDS011;60138;55.808;37.078;2023-04-19T09:13:33;12.43;;;4.10;;
70213;SDS011;60138;55.808;37.078;2023-04-19T09:15:59;14.15;;;5.05;;
70213;SDS011;60138;55.808;37.078;2023-04-19T09:18:25;18.13;;;4.25;;
70213;SDS011;60138;55.808;37.078;2023-04-19T09:20:51;13.83;;;4.33;;
70213;SDS011;60138;55.808;37.078;2023-04-19T09:23:18;8.95;;;4.43;;
70213;SDS011;60138;55.808;37.078;2023-04-19T09:26:16;10.48;;;4.30;;
70213;SDS011;60138;55.808;37.078;2023-04-19T09:28:37;9.50;;;4.20;;
70213;SDS011;60138;55.808;37.078;2023-04-19T09:31:10;12.07;;;4.00;;
70213;SDS011;60138;55.808;37.078;2023-04-19T09:33:37;8.77;;;4.80;;
70213;SDS011;60138;55.808;37.078;2023-04-19T09:36:02;12.33;;;4.03;;
70213;SDS011;60138;55.808;37.078;2023-04-19T09:38:29;12.20;;;3.97;;
70213;SDS011;60138;55.808;37.078;2023-04-19T09:41:07;12.20;;;4.35;;
70213;SDS011;60138;55.808;37.078;2023-04-19T09:43:33;17.03;;;4.97;;
70213;SDS011;60138;55.808;37.078;2023-04-19T09:45:58;10.30;;;4.63;;
70213;SDS011;60138;55.808;37.078;2023-04-19T09:48:24;11.77;;;5.40;;
70213;SDS011;60138;55.808;37.078;2023-04-19T09:50:53;13.77;;;4.20;;
70213;SDS011;60138;55.808;37.078;2023-04-19T09:53:24;9.18;;;4.50;;
70213;SDS011;60138;55.808;37.078;2023-04-19T09:55:50;8.68;;;4.20;;
70213;SDS011;60138;55.808;37.078;2023-04-19T09:58:17;16.67;;;7.43;;
70213;SDS011;60138;55.808;37.078;2023-04-19T10:00:44;7.10;;;3.75;;
70213;SDS011;60138;55.808;37.078;2023-04-19T10:03:10;11.18;;;4.40;;
70213;SDS011;60138;55.808;37.078;2023-04-19T10:05:37;11.10;;;4.72;;
70213;SDS011;60138;55.808;37.078;2023-04-19T10:08:04;8.07;;;4.03;;
70213;SDS011;60138;55.808;37.078;2023-04-19T10:10:32;13.73;;;4.40;;
70213;SDS011;60138;55.808;37.078;2023-04-19T10:12:58;13.80;;;4.32;;
70213;SDS011;60138;55.808;37.078;2023-04-19T10:15:25;7.10;;;4.22;;
70213;SDS011;60138;55.808;37.078;2023-04-19T10:17:51;9.23;;;4.78;;
70213;SDS011;60138;55.808;37.078;2023-04-19T10:20:19;11.43;;;3.90;;
70213;SDS011;60138;55.808;37.078;2023-04-19T10:22:49;10.05;;;4.53;;
70213;SDS011;60138;55.808;37.078;2023-04-19T10:25:15;9.43;;;4.20;;
70213;SDS011;60138;55.808;37.078;2023-04-19T10:27:42;9.97;;;4.23;;
70213;SDS011;60138;55.808;37.078;2023-04-19T10:30:15;10.50;;;3.70;;
70213;SDS011;60138;55.808;37.078;2023-04-19T10:32:52;11.20;;;4.57;;
70213;SDS011;60138;55.808;37.078;2023-04-19T10:35:21;9.77;;;4.00;;
70213;SDS011;60138;55.808;37.078;2023-04-19T10:43:19;9.55;;;4.80;;
70213;SDS011;60138;55.808;37.078;2023-04-19T10:45:45;9.02;;;4.75;;
70213;SDS011;60138;55.808;37.078;2023-04-19T10:53:52;7.70;;;4.17;;
70213;SDS011;60138;55.808;37.078;2023-04-19T10:56:19;13.60;;;4.55;;
70213;SDS011;60138;55.808;37.078;2023-04-19T11:01:34;8.02;;;5.00;;
70213;SDS011;60138;55.808;37.078;2023-04-19T11:04:05;11.70;;;5.00;;
70213;SDS011;60138;55.808;37.078;2023-04-19T11:06:32;8.67;;;5.13;;
70213;SDS011;60138;55.808;37.078;2023-04-19T11:08:59;9.40;;;4.35;;
70213;SDS011;60138;55.808;37.078;2023-04-19T11:11:25;13.57;;;5.38;;
70213;SDS011;60138;55.808;37.078;2023-04-19T11:13:50;9.07;;;4.73;;
70213;SDS011;60138;55.808;37.078;2023-04-19T11:16:18;10.20;;;4.53;;
70213;SDS011;60138;55.808;37.078;2023-04-19T11:18:44;10.18;;;5.07;;
70213;SDS011;60138;55.808;37.078;2023-04-19T11:21:13;8.93;;;4.40;;
70213;SDS011;60138;55.808;37.078;2023-04-19T11:23:41;12.32;;;4.85;;
70213;SDS011;60138;55.808;37.078;2023-04-19T11:26:10;11.33;;;5.33;;
70213;SDS011;60138;55.808;37.078;2023-04-19T11:28:39;17.23;;;4.95;;
70213;SDS011;60138;55.808;37.078;2023-04-19T11:31:05;12.68;;;5.10;;
70213;SDS011;60138;55.808;37.078;2023-04-19T11:33:34;16.15;;;4.97;;
70213;SDS011;60138;55.808;37.078;2023-04-19T11:36:01;11.80;;;4.45;;
70213;SDS011;60138;55.808;37.078;2023-04-19T11:38:27;8.63;;;4.55;;
70213;SDS011;60138;55.808;37.078;2023-04-19T11:41:02;9.55;;;5.40;;
70213;SDS011;60138;55.808;37.078;2023-04-19T11:43:32;11.13;;;4.30;;
70213;SDS011;60138;55.808;37.078;2023-04-19T11:46:03;10.20;;;4.20;;
70213;SDS011;60138;55.808;37.078;2023-04-19T11:48:33;10.23;;;4.67;;
70213;SDS011;60138;55.808;37.078;2023-04-19T11:50:59;15.23;;;4.90;;
70213;SDS011;60138;55.808;37.078;2023-04-19T11:53:26;10.57;;;4.55;;
70213;SDS011;60138;55.808;37.078;2023-04-19T11:55:53;8.82;;;4.20;;
70213;SDS011;60138;55.808;37.078;2023-04-19T12:00:57;8.13;;;4.17;;
70213;SDS011;60138;55.808;37.078;2023-04-19T12:03:28;12.88;;;4.53;;
70213;SDS011;60138;55.808;37.078;2023-04-19T12:05:58;7.72;;;4.32;;
70213;SDS011;60138;55.808;37.078;2023-04-19T12:08:32;7.47;;;4.30;;
70213;SDS011;60138;55.808;37.078;2023-04-19T12:10:59;9.80;;;4.43;;
70213;SDS011;60138;55.808;37.078;2023-04-19T12:13:25;9.55;;;4.22;;
70213;SDS011;60138;55.808;37.078;2023-04-19T12:15:51;12.37;;;4.03;;
70213;SDS011;60138;55.808;37.078;2023-04-19T12:18:17;9.85;;;4.60;;
70213;SDS011;60138;55.808;37.078;2023-04-19T12:20:44;7.40;;;3.92;;
70213;SDS011;60138;55.808;37.078;2023-04-19T12:23:12;12.90;;;4.53;;
70213;SDS011;60138;55.808;37.078;2023-04-19T12:25:38;8.47;;;4.27;;
70213;SDS011;60138;55.808;37.078;2023-04-19T12:28:04;11.23;;;3.60;;
70213;SDS011;60138;55.808;37.078;2023-04-19T12:30:30;6.22;;;3.58;;
70213;SDS011;60138;55.808;37.078;2023-04-19T12:32:57;11.40;;;4.27;;
70213;SDS011;60138;55.808;37.078;2023-04-19T12:35:25;11.73;;;3.92;;
70213;SDS011;60138;55.808;37.078;2023-04-19T12:37:56;8.25;;;3.63;;
70213;SDS011;60138;55.808;37.078;2023-04-19T12:40:23;8.70;;;4.80;;
70213;SDS011;60138;55.808;37.078;2023-04-19T12:42:50;10.00;;;4.13;;
70213;SDS011;60138;55.808;37.078;2023-04-19T12:45:18;17.50;;;5.80;;
70213;SDS011;60138;55.808;37.078;2023-04-19T12:47:45;11.98;;;4.28;;
70213;SDS011;60138;55.808;37.078;2023-04-19T12:50:11;9.98;;;3.80;;
70213;SDS011;60138;55.808;37.078;2023-04-19T12:52:39;8.15;;;3.60;;
70213;SDS011;60138;55.808;37.078;2023-04-19T12:55:05;11.23;;;3.95;;
70213;SDS011;60138;55.808;37.078;2023-04-19T12:57:31;7.07;;;3.73;;
70213;SDS011;60138;55.808;37.078;2023-04-19T12:59:57;9.48;;;4.47;;
70213;SDS011;60138;55.808;37.078;2023-04-19T13:02:23;8.75;;;3.60;;
70213;SDS011;60138;55.808;37.078;2023-04-19T13:04:49;9.40;;;3.35;;
70213;SDS011;60138;55.808;37.078;2023-04-19T13:07:15;10.50;;;3.87;;
70213;SDS011;60138;55.808;37.078;2023-04-19T13:09:40;9.13;;;3.80;;
70213;SDS011;60138;55.808;37.078;2023-04-19T13:12:06;10.20;;;4.10;;
70213;SDS011;60138;55.808;37.078;2023-04-19T13:14:32;7.82;;;3.97;;
70213;SDS011;60138;55.808;37.078;2023-04-19T13:16:58;7.78;;;3.65;;
70213;SDS011;60138;55.808;37.078;2023-04-19T13:19:24;8.23;;;3.73;;
70213;SDS011;60138;55.808;37.078;2023-04-19T13:21:50;9.27;;;4.25;;
70213;SDS011;60138;55.808;37.078;2023-04-19T13:24:15;6.80;;;3.28;;
70213;SDS011;60138;55.808;37.078;2023-04-19T13:26:41;9.17;;;3.53;;
70213;SDS011;60138;55.808;37.078;2023-04-19T13:29:07;6.35;;;3.33;;
70213;SDS011;60138;55.808;37.078;2023-04-19T13:31:33;9.47;;;3.87;;
70213;SDS011;60138;55.808;37.078;2023-04-19T13:33:59;8.10;;;3.60;;
70213;SDS011;60138;55.808;37.078;2023-04-19T13:36:25;10.32;;;3.50;;
70213;SDS011;60138;55.808;37.078;2023-04-19T13:38:51;9.73;;;3.70;;
70213;SDS011;60138;55.808;37.078;2023-04-19T13:41:17;11.75;;;3.80;;
70213;SDS011;60138;55.808;37.078;2023-04-19T13:43:42;8.27;;;3.23;;
70213;SDS011;60138;55.808;37.078;2023-04-19T13:46:09;8.65;;;3.65;;
70213;SDS011;60138;55.808;37.078;2023-04-19T13:48:35;9.65;;;4.03;;
70213;SDS011;60138;55.808;37.078;2023-04-19T13:51:00;7.30;;;3.33;;
70213;SDS011;60138;55.808;37.078;2023-04-19T13:53:26;7.47;;;3.50;;
70213;SDS011;60138;55.808;37.078;2023-04-19T13:55:52;8.10;;;3.50;;
70213;SDS011;60138;55.808;37.078;2023-04-19T13:58:18;8.17;;;3.33;;
70213;SDS011;60138;55.808;37.078;2023-04-19T14:00:44;7.35;;;3.60;;
70213;SDS011;60138;55.808;37.078;2023-04-19T14:03:10;8.17;;;3.53;;
70213;SDS011;60138;55.808;37.078;2023-04-19T14:05:36;8.47;;;3.63;;
70213;SDS011;60138;55.808;37.078;2023-04-19T14:08:01;9.18;;;3.58;;
70213;SDS011;60138;55.808;37.078;2023-04-19T14:10:27;7.60;;;3.25;;
70213;SDS011;60138;55.808;37.078;2023-04-19T14:12:53;8.63;;;3.30;;
70213;SDS011;60138;55.808;37.078;2023-04-19T14:15:19;6.70;;;3.63;;
70213;SDS011;60138;55.808;37.078;2023-04-19T14:17:45;7.82;;;3.90;;
70213;SDS011;60138;55.808;37.078;2023-04-19T14:20:11;9.73;;;4.13;;
70213;SDS011;60138;55.808;37.078;2023-04-19T14:22:37;10.07;;;4.10;;
70213;SDS011;60138;55.808;37.078;2023-04-19T14:25:03;12.32;;;4.07;;
70213;SDS011;60138;55.808;37.078;2023-04-19T14:27:30;7.57;;;3.33;;
70213;SDS011;60138;55.808;37.078;2023-04-19T14:29:56;7.63;;;3.60;;
70213;SDS011;60138;55.808;37.078;2023-04-19T14:32:21;6.03;;;3.22;;
70213;SDS011;60138;55.808;37.078;2023-04-19T14:34:47;8.37;;;3.60;;
70213;SDS011;60138;55.808;37.078;2023-04-19T14:37:13;10.07;;;3.85;;
70213;SDS011;60138;55.808;37.078;2023-04-19T14:39:39;7.40;;;3.10;;